Time;durP1;ratioP1;P1;durP2;ratioP2;P2;SDS_P1;SDS_P2;PMS_P1;PMS_P2;Temp;Humidity;BMP_temperature;BMP_pressure;BME280_temperature;BME280_humidity;BME280_pressure;Samples;Min_cycle;Max_cycle;Signal;HPM_P1;HPM_P2
2023/01/06 00:00:37;;;;;;;11.10;5.47;;;;;;;6.60;100.00;101858.03;5013168;28;20563;-76
2023/01/06 00:03:02;;;;;;;11.73;4.87;;;;;;;6.60;100.00;101860.56;5010578;28;20219;-75
2023/01/06 00:05:28;;;;;;;8.03;4.40;;;;;;;6.63;100.00;101870.03;5002930;28;20695;-77
2023/01/06 00:07:54;;;;;;;10.73;4.90;;;;;;;6.63;100.00;101857.31;5011463;28;20217;-77
2023/01/06 00:10:20;;;;;;;11.57;5.30;;;;;;;6.62;100.00;101855.53;4999282;28;20667;-77
2023/01/06 00:12:47;;;;;;;11.90;4.90;;;;;;;6.60;100.00;101854.59;5010218;28;20215;-77
2023/01/06 00:15:14;;;;;;;13.00;5.30;;;;;;;6.59;100.00;101848.63;4991571;28;20602;-76
2023/01/06 00:17:40;;;;;;;8.27;4.63;;;;;;;6.60;100.00;101847.84;4993620;28;20290;-75
2023/01/06 00:20:07;;;;;;;10.43;5.93;;;;;;;6.61;100.00;101854.69;5005736;28;20686;-76
2023/01/06 00:22:32;;;;;;;10.93;5.20;;;;;;;6.61;100.00;101847.06;5008984;28;20213;-79
2023/01/06 00:24:58;;;;;;;10.53;4.80;;;;;;;6.63;100.00;101844.59;4987201;28;20230;-79
2023/01/06 00:27:23;;;;;;;11.93;4.90;;;;;;;6.62;100.00;101840.28;5001320;28;20222;-78
2023/01/06 00:29:49;;;;;;;11.77;5.37;;;;;;;6.65;100.00;101837.91;4981381;28;20323;-77
2023/01/06 00:32:17;;;;;;;12.90;6.13;;;;;;;6.62;100.00;101837.72;4981750;28;20590;-79
2023/01/06 00:34:42;;;;;;;10.20;5.70;;;;;;;6.61;100.00;101835.97;5009065;28;20187;-78
2023/01/06 00:37:08;;;;;;;11.80;5.60;;;;;;;6.60;100.00;101819.88;4983381;28;20266;-79
2023/01/06 00:39:33;;;;;;;12.87;5.83;;;;;;;6.60;100.00;101814.78;4986313;28;20574;-77
2023/01/06 00:42:05;;;;;;;19.17;5.90;;;;;;;6.62;100.00;101815.72;4994911;28;20202;-78
2023/01/06 00:44:35;;;;;;;9.80;5.93;;;;;;;6.63;100.00;101814.91;4994700;28;20631;-78
2023/01/06 00:47:04;;;;;;;10.83;6.53;;;;;;;6.62;100.00;101815.72;5007515;28;20195;-77
2023/01/06 00:49:30;;;;;;;11.83;5.73;;;;;;;6.63;100.00;101801.34;5010300;28;20192;-76
2023/01/06 00:51:56;;;;;;;14.30;6.90;;;;;;;6.64;100.00;101798.00;5014825;28;20210;-76
2023/01/06 00:54:22;;;;;;;15.60;6.43;;;;;;;6.63;100.00;101793.69;5012332;28;20600;-78
2023/01/06 00:56:50;;;;;;;12.60;7.33;;;;;;;6.63;100.00;101796.25;4990790;28;20277;-78
2023/01/06 00:59:19;;;;;;;11.70;6.67;;;;;;;6.65;100.00;101792.09;5009802;28;20222;-75
2023/01/06 01:01:45;;;;;;;17.13;6.87;;;;;;;6.64;100.00;101786.13;5002774;28;20293;-76
2023/01/06 01:04:12;;;;;;;18.13;8.13;;;;;;;6.64;100.00;101778.47;4999755;28;20202;-78
2023/01/06 01:06:42;;;;;;;16.30;7.43;;;;;;;6.64;100.00;101781.03;5001091;28;20218;-76
2023/01/06 01:09:13;;;;;;;16.03;7.83;;;;;;;6.64;100.00;101775.09;5019821;28;20214;-74
2023/01/06 01:14:22;;;;;;;14.87;8.87;;;;;;;6.62;100.00;101780.09;5014111;28;20191;-79
2023/01/06 01:16:48;;;;;;;16.63;7.83;;;;;;;6.65;100.00;101774.28;4990256;28;20191;-78
2023/01/06 01:19:14;;;;;;;18.53;8.90;;;;;;;6.67;100.00;101782.84;5021993;28;20199;-76
2023/01/06 01:21:39;;;;;;;19.10;8.50;;;;;;;6.67;100.00;101778.66;4996465;28;20187;-77
2023/01/06 01:24:06;;;;;;;20.37;8.77;;;;;;;6.68;100.00;101777.00;5014792;28;20253;-76
2023/01/06 01:26:32;;;;;;;15.57;8.43;;;;;;;6.67;100.00;101773.56;5016735;28;20278;-78
2023/01/06 01:28:58;;;;;;;17.67;8.77;;;;;;;6.70;100.00;101767.75;5012722;28;20662;-78
2023/01/06 01:31:24;;;;;;;18.93;9.10;;;;;;;6.70;100.00;101767.75;5009101;28;20217;-78
2023/01/06 01:33:49;;;;;;;19.07;8.80;;;;;;;6.70;100.00;101765.19;5017675;28;20222;-76
2023/01/06 01:36:17;;;;;;;22.30;9.20;;;;;;;6.71;100.00;101761.84;4991307;28;20191;-78
2023/01/06 01:38:42;;;;;;;15.17;9.10;;;;;;;6.73;100.00;101755.19;5005163;28;20208;-77
2023/01/06 01:41:15;;;;;;;17.00;9.13;;;;;;;6.74;100.00;101756.94;4995163;28;20202;-78
2023/01/06 01:43:45;;;;;;;18.53;10.30;;;;;;;6.76;100.00;101738.38;4993593;28;20191;-78
2023/01/06 01:46:13;;;;;;;17.73;9.90;;;;;;;6.77;100.00;101742.66;4993682;28;20217;-77
2023/01/06 01:48:39;;;;;;;24.23;10.43;;;;;;;6.80;100.00;101736.84;4993163;28;20282;-78
2023/01/06 01:51:09;;;;;;;21.77;10.90;;;;;;;6.82;100.00;101728.50;5002593;28;20195;-76
2023/01/06 01:53:39;;;;;;;23.20;11.47;;;;;;;6.83;100.00;101726.84;5027470;28;20222;-77
2023/01/06 01:56:09;;;;;;;21.40;11.27;;;;;;;6.85;100.00;101735.41;5026419;28;20198;-76
2023/01/06 01:59:04;;;;;;;21.50;11.13;;;;;;;6.87;100.00;101721.09;4989412;28;20688;-76
2023/01/06 02:01:30;;;;;;;26.67;11.03;;;;;;;6.88;100.00;101722.84;5002323;28;20206;-77
2023/01/06 02:03:57;;;;;;;27.67;11.17;;;;;;;6.90;100.00;101721.22;4987356;28;20194;-75
2023/01/06 02:06:25;;;;;;;19.27;11.57;;;;;;;6.87;100.00;101711.75;4986104;28;20805;-78
2023/01/06 02:09:03;;;;;;;24.13;11.40;;;;;;;6.89;100.00;101714.38;5009066;28;20282;-77
2023/01/06 02:11:31;;;;;;;26.00;11.80;;;;;;;6.90;100.00;101708.50;4980824;28;20195;-76
2023/01/06 02:14:11;;;;;;;28.03;12.73;;;;;;;6.91;100.00;101695.84;5013439;28;20207;-78
2023/01/06 02:16:55;;;;;;;26.10;12.03;;;;;;;6.93;100.00;101694.25;4992351;28;20195;-78
2023/01/06 02:19:53;;;;;;;25.67;13.17;;;;;;;6.94;100.00;101693.44;4987965;28;20221;-77
2023/01/06 02:22:21;;;;;;;28.07;13.57;;;;;;;6.95;100.00;101699.44;4997193;28;20191;-77
2023/01/06 02:25:06;;;;;;;27.13;13.60;;;;;;;6.98;100.00;101697.91;4986698;28;20210;-78
2023/01/06 02:28:05;;;;;;;25.37;13.20;;;;;;;7.01;100.00;101692.94;4982123;28;20218;-76
2023/01/06 02:30:54;;;;;;;27.87;14.87;;;;;;;7.02;100.00;101697.25;4974436;28;20234;-76
2023/01/06 02:33:20;;;;;;;29.40;15.47;;;;;;;7.04;100.00;101682.03;5004056;28;20238;-76
2023/01/06 02:35:56;;;;;;;31.87;16.57;;;;;;;7.10;100.00;101687.41;5008088;28;20187;-76
2023/01/06 02:38:52;;;;;;;29.47;17.10;;;;;;;7.11;100.00;101673.88;4992411;28;20218;-76
2023/01/06 02:41:39;;;;;;;33.97;18.17;;;;;;;7.12;100.00;101668.84;4988019;28;20191;-78
2023/01/06 02:44:20;;;;;;;31.70;16.80;;;;;;;7.15;100.00;101669.00;5004735;28;20707;-77
2023/01/06 02:46:48;;;;;;;34.73;18.10;;;;;;;7.17;100.00;101669.94;4986388;28;20776;-77
2023/01/06 02:49:37;;;;;;;34.13;17.07;;;;;;;7.20;100.00;101670.09;4992883;28;20261;-77
2023/01/06 02:52:11;;;;;;;29.90;16.80;;;;;;;7.23;100.00;101647.28;4984160;28;20210;-76
2023/01/06 02:54:55;;;;;;;28.23;16.87;;;;;;;7.22;100.00;101645.53;4993585;28;20195;-77
2023/01/06 02:57:37;;;;;;;30.13;16.30;;;;;;;7.24;100.00;101643.94;4990152;28;20221;-78
2023/01/06 03:00:21;;;;;;;32.43;17.53;;;;;;;7.26;100.00;101637.25;4990291;28;20248;-77
2023/01/06 03:03:03;;;;;;;30.30;16.57;;;;;;;7.29;100.00;101629.75;4999029;28;20195;-77
2023/01/06 03:05:32;;;;;;;26.83;16.30;;;;;;;7.32;100.00;101631.56;4987221;28;20198;-77
2023/01/06 03:08:03;;;;;;;27.30;16.13;;;;;;;7.35;100.00;101632.56;4991432;28;20221;-75
2023/01/06 03:10:30;;;;;;;31.07;16.17;;;;;;;7.41;100.00;101627.72;4998991;28;20249;-77
2023/01/06 03:13:03;;;;;;;30.00;15.53;;;;;;;7.41;100.00;101616.69;4981013;28;20246;-77
2023/01/06 03:15:29;;;;;;;29.53;15.80;;;;;;;7.44;100.00;101611.72;5009247;28;20190;-77
2023/01/06 03:17:55;;;;;;;27.77;16.47;;;;;;;7.48;100.00;101611.94;5003770;28;20593;-77
2023/01/06 03:20:20;;;;;;;29.23;16.20;;;;;;;7.49;100.00;101603.47;4985220;28;20188;-77
2023/01/06 03:22:46;;;;;;;33.47;15.80;;;;;;;7.52;100.00;101601.06;5005510;28;20195;-76
2023/01/06 03:25:13;;;;;;;29.20;16.33;;;;;;;7.57;100.00;101597.03;4991785;28;20523;-76
2023/01/06 03:27:39;;;;;;;31.47;16.93;;;;;;;7.56;100.00;101597.81;5004270;28;20260;-78
2023/01/06 03:30:09;;;;;;;29.17;16.43;;;;;;;7.58;100.00;101593.69;5005028;28;20697;-76
2023/01/06 03:32:42;;;;;;;32.80;17.50;;;;;;;7.59;100.00;101592.88;4978441;28;20250;-76
2023/01/06 03:35:27;;;;;;;30.30;16.43;;;;;;;7.61;100.00;101591.25;4991153;28;20225;-77
2023/01/06 03:37:59;;;;;;;31.57;16.57;;;;;;;7.64;100.00;101586.28;5006239;28;20215;-77
2023/01/06 03:40:54;;;;;;;28.57;16.40;;;;;;;7.66;100.00;101587.25;4982265;28;20207;-76
2023/01/06 03:43:32;;;;;;;34.80;16.87;;;;;;;7.69;100.00;101574.59;4988538;28;20558;-78
2023/01/06 03:46:23;;;;;;;35.13;17.27;;;;;;;7.69;100.00;101579.72;4996942;28;20210;-76
2023/01/06 03:49:00;;;;;;;31.50;16.37;;;;;;;7.76;100.00;101578.28;4993643;28;20207;-76
2023/01/06 03:51:57;;;;;;;32.27;16.53;;;;;;;7.79;100.00;101578.44;4985944;28;20222;-77
2023/01/06 03:54:46;;;;;;;26.10;15.60;;;;;;;7.82;100.00;101571.78;4986927;28;20661;-77
2023/01/06 03:57:19;;;;;;;31.77;16.10;;;;;;;7.86;100.00;101565.13;4999679;28;20703;-75
2023/01/06 03:59:52;;;;;;;28.97;16.50;;;;;;;7.88;100.00;101559.28;4989401;28;20202;-75
2023/01/06 04:02:19;;;;;;;32.90;16.07;;;;;;;7.90;100.00;101554.25;4986318;28;20195;-75
2023/01/06 04:05:00;;;;;;;31.10;16.63;;;;;;;7.90;100.00;101555.13;5004211;28;20206;-76
2023/01/06 04:07:28;;;;;;;29.10;16.00;;;;;;;7.96;100.00;101554.47;4990229;28;20214;-75
2023/01/06 04:09:54;;;;;;;31.50;17.37;;;;;;;8.03;100.00;101559.03;5002635;28;20194;-76
2023/01/06 04:12:37;;;;;;;29.93;17.20;;;;;;;8.08;100.00;101548.22;4986022;28;20204;-75
2023/01/06 04:15:07;;;;;;;30.43;16.87;;;;;;;8.04;100.00;101538.72;4989037;28;20245;-76
2023/01/06 04:17:34;;;;;;;31.30;16.03;;;;;;;8.07;100.00;101540.50;4992789;28;20219;-76
2023/01/06 04:19:59;;;;;;;29.97;16.47;;;;;;;8.10;100.00;101531.28;4989127;28;20195;-76
2023/01/06 04:22:25;;;;;;;35.03;17.73;;;;;;;8.11;100.00;101516.88;4989942;28;20196;-76
2023/01/06 04:24:50;;;;;;;30.90;17.43;;;;;;;8.12;100.00;101513.50;5002338;28;20802;-75
2023/01/06 04:27:16;;;;;;;33.37;18.30;;;;;;;8.13;100.00;101516.13;4989248;28;20266;-75
2023/01/06 04:29:41;;;;;;;29.67;16.70;;;;;;;8.15;100.00;101521.28;5005439;28;20195;-76
2023/01/06 04:32:07;;;;;;;29.27;16.10;;;;;;;8.18;100.00;101508.63;4988651;28;20216;-76
2023/01/06 04:34:33;;;;;;;37.63;18.47;;;;;;;8.17;100.00;101502.69;4989481;28;20209;-76
2023/01/06 04:36:58;;;;;;;35.37;18.43;;;;;;;8.22;100.00;101506.31;4991088;28;20191;-76
2023/01/06 04:39:24;;;;;;;31.30;17.27;;;;;;;8.25;100.00;101487.72;4993016;28;20199;-75
2023/01/06 04:41:49;;;;;;;37.60;18.27;;;;;;;8.25;100.00;101501.31;5003361;28;20330;-75
2023/01/06 04:44:15;;;;;;;35.63;17.47;;;;;;;8.30;100.00;101497.25;5010070;28;20257;-75
2023/01/06 04:46:40;;;;;;;31.40;18.53;;;;;;;8.34;100.00;101496.56;5003307;28;20207;-75
2023/01/06 04:49:06;;;;;;;37.97;19.10;;;;;;;8.37;100.00;101485.63;5008795;28;20221;-75
2023/01/06 04:51:31;;;;;;;34.87;18.53;;;;;;;8.41;100.00;101484.91;5004303;28;20735;-76
2023/01/06 04:53:57;;;;;;;46.37;20.80;;;;;;;8.49;100.00;101475.88;5002156;28;20585;-75
2023/01/06 04:56:22;;;;;;;39.83;19.70;;;;;;;8.49;100.00;101478.44;4992478;28;20274;-77
2023/01/06 04:58:48;;;;;;;35.37;18.63;;;;;;;8.55;100.00;101471.88;5004151;28;20657;-76
2023/01/06 05:01:13;;;;;;;33.83;19.50;;;;;;;8.58;100.00;101468.56;5008226;28;20203;-75
2023/01/06 05:03:40;;;;;;;38.83;18.90;;;;;;;8.58;100.00;101466.91;5010167;28;20202;-75
2023/01/06 05:06:10;;;;;;;37.73;19.77;;;;;;;8.62;100.00;101462.78;5001792;28;20272;-75
2023/01/06 05:08:40;;;;;;;39.40;19.50;;;;;;;8.64;100.00;101456.91;4989298;28;20280;-74
2023/01/06 05:11:11;;;;;;;42.73;19.70;;;;;;;8.65;100.00;101461.19;5000941;28;20203;-75
2023/01/06 05:13:37;;;;;;;38.23;18.87;;;;;;;8.64;100.00;101459.47;5007240;28;20655;-76
2023/01/06 05:16:13;;;;;;;40.93;20.17;;;;;;;8.67;100.00;101446.78;5005988;28;20249;-79
2023/01/06 05:18:39;;;;;;;38.73;19.00;;;;;;;8.73;100.00;101456.38;5005871;28;20222;-75
2023/01/06 05:21:04;;;;;;;43.17;19.47;;;;;;;8.74;100.00;101450.44;4995755;28;20194;-75
2023/01/06 05:23:30;;;;;;;35.10;18.30;;;;;;;8.73;100.00;101448.72;5006678;28;20657;-75
2023/01/06 05:25:55;;;;;;;41.80;19.90;;;;;;;8.74;100.00;101447.88;4995074;28;20207;-75
2023/01/06 05:28:21;;;;;;;37.47;18.63;;;;;;;8.76;100.00;101454.78;5003379;28;20241;-76
2023/01/06 05:30:47;;;;;;;39.90;20.23;;;;;;;8.76;100.00;101453.94;5010926;28;20195;-74
2023/01/06 05:33:13;;;;;;;39.23;20.50;;;;;;;8.77;100.00;101445.44;5003160;28;20215;-75
2023/01/06 05:35:38;;;;;;;37.50;18.90;;;;;;;8.77;100.00;101440.34;5009857;28;20611;-75
2023/01/06 05:38:04;;;;;;;39.03;20.03;;;;;;;8.77;100.00;101437.78;5007839;28;20298;-76
2023/01/06 05:40:29;;;;;;;35.77;19.27;;;;;;;8.79;100.00;101436.16;5006042;28;20730;-75
2023/01/06 05:42:55;;;;;;;38.00;20.73;;;;;;;8.79;100.00;101428.50;5001680;28;20194;-75
2023/01/06 05:45:23;;;;;;;39.47;19.87;;;;;;;8.81;100.00;101425.16;5012305;28;20195;-76
2023/01/06 05:47:48;;;;;;;42.03;20.07;;;;;;;8.82;100.00;101426.94;5017969;28;20691;-77
2023/01/06 05:50:14;;;;;;;38.97;20.43;;;;;;;8.89;100.00;101431.44;5003894;28;20198;-74
2023/01/06 05:52:39;;;;;;;42.60;20.23;;;;;;;8.88;100.00;101434.81;4999200;28;20214;-76
2023/01/06 05:55:05;;;;;;;39.20;21.60;;;;;;;8.90;100.00;101439.97;4992582;28;20249;-76
2023/01/06 05:57:32;;;;;;;37.70;20.33;;;;;;;8.92;100.00;101429.00;5007395;28;20724;-76
2023/01/06 05:59:58;;;;;;;39.40;22.47;;;;;;;8.96;100.00;101435.06;5010743;28;20198;-75
2023/01/06 06:02:23;;;;;;;36.70;21.17;;;;;;;9.00;100.00;101429.25;5004004;28;20273;-76
2023/01/06 06:04:49;;;;;;;42.43;22.97;;;;;;;9.05;100.00;101420.06;5002432;28;20220;-76
2023/01/06 06:07:14;;;;;;;38.07;21.27;;;;;;;9.06;100.00;101415.03;5001936;28;20207;-75
2023/01/06 06:09:39;;;;;;;36.10;20.50;;;;;;;9.08;100.00;101413.38;4999042;28;20203;-77
2023/01/06 06:12:06;;;;;;;39.97;21.93;;;;;;;9.09;100.00;101419.38;4997344;28;20230;-76
2023/01/06 06:14:31;;;;;;;42.10;21.47;;;;;;;9.10;100.00;101423.66;5011970;28;20651;-76
2023/01/06 06:16:57;;;;;;;35.27;21.50;;;;;;;9.13;100.00;101427.16;5007813;28;20199;-75
2023/01/06 06:19:23;;;;;;;38.03;22.57;;;;;;;9.16;100.00;101426.41;5006907;28;20206;-75
2023/01/06 06:21:48;;;;;;;35.00;21.57;;;;;;;9.17;100.00;101423.06;5004344;28;20184;-76
2023/01/06 06:24:13;;;;;;;36.77;22.23;;;;;;;9.19;100.00;101427.41;4990525;28;20695;-75
2023/01/06 06:26:39;;;;;;;40.33;23.03;;;;;;;9.23;100.00;101428.38;5008110;28;20656;-75
2023/01/06 06:29:05;;;;;;;41.53;21.73;;;;;;;9.24;100.00;101425.88;4992367;28;20294;-76
2023/01/06 06:31:31;;;;;;;41.67;22.57;;;;;;;9.24;100.00;101418.19;4991806;28;20258;-75
2023/01/06 06:33:59;;;;;;;34.07;21.07;;;;;;;9.27;100.00;101408.06;4983895;28;20614;-75
2023/01/06 06:36:25;;;;;;;36.03;21.07;;;;;;;9.28;100.00;101394.50;4977230;28;20199;-75
2023/01/06 06:38:51;;;;;;;40.03;20.87;;;;;;;9.29;100.00;101391.13;5009759;28;20207;-75
2023/01/06 06:41:19;;;;;;;33.57;21.40;;;;;;;9.30;100.00;101405.63;5008780;28;20195;-76
2023/01/06 06:43:44;;;;;;;35.80;21.83;;;;;;;9.30;100.00;101402.22;5006344;28;20187;-75
2023/01/06 06:46:10;;;;;;;33.97;21.43;;;;;;;9.30;100.00;101404.78;4999176;28;20188;-75
2023/01/06 06:48:36;;;;;;;37.17;22.23;;;;;;;9.33;100.00;101392.06;4997691;28;20280;-76
2023/01/06 06:51:05;;;;;;;36.33;21.60;;;;;;;9.32;100.00;101388.66;4979692;28;20286;-76
2023/01/06 06:53:31;;;;;;;34.63;21.43;;;;;;;9.32;100.00;101388.66;4982070;28;20231;-75
2023/01/06 06:55:57;;;;;;;32.37;21.30;;;;;;;9.32;100.00;101385.22;5014460;28;20279;-75
2023/01/06 06:58:23;;;;;;;31.87;21.03;;;;;;;9.33;100.00;101385.28;4983023;28;20650;-74
2023/01/06 07:00:48;;;;;;;33.40;21.23;;;;;;;9.34;100.00;101388.69;5013976;28;20197;-75
2023/01/06 07:03:14;;;;;;;30.90;20.17;;;;;;;9.37;100.00;101388.81;5014409;28;20221;-76
2023/01/06 07:05:44;;;;;;;32.53;21.60;;;;;;;9.36;100.00;101395.59;5007019;28;20292;-77
2023/01/06 07:08:13;;;;;;;30.13;20.77;;;;;;;9.37;100.00;101388.81;4989155;28;20742;-74
2023/01/06 07:10:39;;;;;;;28.33;21.13;;;;;;;9.39;100.00;101385.47;4987272;28;20198;-75
2023/01/06 07:13:05;;;;;;;29.90;20.53;;;;;;;9.39;100.00;101382.03;4992878;28;20584;-74
2023/01/06 07:15:30;;;;;;;30.00;20.63;;;;;;;9.39;100.00;101382.91;5000900;28;20198;-77
2023/01/06 07:18:03;;;;;;;28.50;19.90;;;;;;;9.40;100.00;101376.97;4995720;28;20207;-75
2023/01/06 07:20:30;;;;;;;31.60;21.30;;;;;;;9.41;100.00;101368.53;4991727;28;20550;-76
2023/01/06 07:22:56;;;;;;;28.53;19.90;;;;;;;9.44;100.00;101377.97;5006231;28;20210;-75
2023/01/06 07:25:21;;;;;;;28.53;19.97;;;;;;;9.44;100.00;101371.16;4987786;28;20656;-76
2023/01/06 07:27:52;;;;;;;25.63;19.10;;;;;;;9.47;100.00;101368.72;5003947;28;20565;-75
2023/01/06 07:30:18;;;;;;;26.93;18.70;;;;;;;9.49;100.00;101366.22;4984606;28;20188;-75
2023/01/06 07:32:43;;;;;;;29.83;19.90;;;;;;;9.49;100.00;101358.53;5007002;28;20754;-75
2023/01/06 07:35:09;;;;;;;26.73;17.83;;;;;;;9.49;100.00;101356.00;5003017;28;20735;-75
2023/01/06 07:37:34;;;;;;;25.23;18.00;;;;;;;9.49;100.00;101364.50;5011233;28;20687;-74
2023/01/06 07:40:00;;;;;;;26.47;17.27;;;;;;;9.51;100.00;101356.88;5002637;28;20546;-74
2023/01/06 07:42:25;;;;;;;23.47;16.97;;;;;;;9.52;100.00;101362.06;5003126;28;20231;-74
2023/01/06 07:44:50;;;;;;;26.33;18.50;;;;;;;9.55;100.00;101361.28;4999544;28;20703;-75
2023/01/06 07:47:16;;;;;;;26.47;18.40;;;;;;;9.54;100.00;101354.44;5008708;28;20208;-74
2023/01/06 07:49:41;;;;;;;24.93;18.03;;;;;;;9.54;100.00;101351.88;5019111;28;20190;-75
2023/01/06 07:52:07;;;;;;;27.77;18.30;;;;;;;9.52;100.00;101348.41;4987215;28;20202;-75
2023/01/06 07:54:32;;;;;;;26.30;18.67;;;;;;;9.51;100.00;101346.66;5011038;28;20331;-75
2023/01/06 07:56:58;;;;;;;26.60;19.80;;;;;;;9.51;100.00;101344.09;4976148;28;20280;-75
2023/01/06 07:59:23;;;;;;;23.43;17.97;;;;;;;9.51;100.00;101344.09;4995061;28;20206;-75
2023/01/06 08:01:48;;;;;;;25.77;18.63;;;;;;;9.51;100.00;101345.00;4993629;28;20195;-76
2023/01/06 08:04:14;;;;;;;28.47;19.43;;;;;;;9.51;100.00;101336.44;4992859;28;20203;-74
2023/01/06 08:06:39;;;;;;;30.07;19.57;;;;;;;9.51;100.00;101336.44;4993899;28;20226;-76
2023/01/06 08:09:05;;;;;;;26.97;19.07;;;;;;;9.51;100.00;101323.66;4977140;28;20212;-76
2023/01/06 08:11:31;;;;;;;30.47;20.37;;;;;;;9.51;100.00;101324.53;5009529;28;20581;-75
2023/01/06 08:13:56;;;;;;;30.50;20.33;;;;;;;9.50;100.00;101317.66;5005342;28;20254;-75
2023/01/06 08:16:21;;;;;;;28.43;20.17;;;;;;;9.50;100.00;101319.38;4995178;28;20672;-76
2023/01/06 08:18:47;;;;;;;27.57;19.13;;;;;;;9.51;100.00;101321.09;5006473;28;20226;-74
2023/01/06 08:21:12;;;;;;;26.27;19.23;;;;;;;9.50;100.00;101320.22;5008605;28;20199;-75
2023/01/06 08:23:38;;;;;;;27.70;19.87;;;;;;;9.51;100.00;101316.88;4995710;28;20198;-74
2023/01/06 08:26:09;;;;;;;29.17;19.83;;;;;;;9.51;100.00;101304.09;5005093;28;20192;-75
2023/01/06 08:28:35;;;;;;;28.87;19.03;;;;;;;9.51;100.00;101304.09;4985155;28;20223;-77
2023/01/06 08:31:02;;;;;;;25.00;18.83;;;;;;;9.52;100.00;101304.94;4974175;28;20195;-75
2023/01/06 08:33:28;;;;;;;24.23;18.77;;;;;;;9.54;100.00;101301.59;5007923;28;20222;-75
2023/01/06 08:36:00;;;;;;;20.27;17.07;;;;;;;9.59;100.00;101302.63;4988670;28;20206;-75
2023/01/06 08:38:27;;;;;;;21.50;17.17;;;;;;;9.59;100.00;101297.50;4990893;28;20709;-75
2023/01/06 08:40:52;;;;;;;21.87;16.60;;;;;;;9.61;100.00;101298.44;5000356;28;20199;-76
2023/01/06 08:43:18;;;;;;;19.20;15.70;;;;;;;9.63;100.00;101304.44;4988225;28;20186;-75
2023/01/06 08:45:43;;;;;;;18.90;14.17;;;;;;;9.62;100.00;101299.28;5002116;28;20884;-75
2023/01/06 08:48:09;;;;;;;16.27;13.87;;;;;;;9.64;100.00;101306.16;4979833;28;20211;-75
2023/01/06 08:50:37;;;;;;;18.57;13.60;;;;;;;9.68;100.00;101312.28;5006926;28;20195;-76
2023/01/06 08:53:03;;;;;;;17.80;14.03;;;;;;;9.69;100.00;101312.31;5001112;28;20223;-76
2023/01/06 08:55:28;;;;;;;15.97;12.47;;;;;;;9.71;100.00;101300.44;5009638;28;20213;-76
2023/01/06 08:57:54;;;;;;;15.10;12.00;;;;;;;9.71;100.00;101305.56;5007603;28;20595;-76
2023/01/06 09:00:19;;;;;;;14.37;10.20;;;;;;;9.79;100.00;101305.78;5001556;28;20195;-76
2023/01/06 09:02:45;;;;;;;12.70;9.90;;;;;;;9.78;100.00;101302.38;5008593;28;20199;-75
2023/01/06 09:05:10;;;;;;;11.90;9.17;;;;;;;9.81;100.00;101299.03;5006177;28;20556;-75
2023/01/06 09:07:36;;;;;;;10.00;8.43;;;;;;;9.84;100.00;101300.00;4983933;28;20215;-75
2023/01/06 09:10:02;;;;;;;10.53;9.33;;;;;;;9.84;100.00;101296.53;4984383;28;20194;-75
2023/01/06 09:12:28;;;;;;;11.40;8.53;;;;;;;9.84;100.00;101296.53;5014032;28;20698;-75
2023/01/06 09:14:53;;;;;;;13.23;8.63;;;;;;;9.87;100.00;101291.53;4990589;28;20238;-76
2023/01/06 09:17:19;;;;;;;8.27;7.43;;;;;;;9.85;100.00;101308.50;5006850;28;20221;-75
2023/01/06 09:19:44;;;;;;;8.50;7.67;;;;;;;9.86;100.00;101306.00;5010028;28;20194;-74
2023/01/06 09:22:09;;;;;;;9.23;7.00;;;;;;;9.86;100.00;101303.44;4972259;28;20188;-76
2023/01/06 09:24:35;;;;;;;8.80;7.07;;;;;;;9.88;100.00;101304.38;4998004;28;20282;-75
2023/01/06 09:27:00;;;;;;;9.50;6.53;;;;;;;9.90;100.00;101299.31;4988302;28;20634;-75
2023/01/06 09:29:26;;;;;;;7.80;5.13;;;;;;;9.92;100.00;101300.19;5016670;28;20203;-75
2023/01/06 09:31:51;;;;;;;8.80;5.50;;;;;;;9.96;100.00;101305.44;5010475;28;20286;-75
2023/01/06 09:34:17;;;;;;;7.73;5.30;;;;;;;9.98;100.00;101311.47;5006324;28;20204;-75
2023/01/06 09:36:42;;;;;;;6.63;5.17;;;;;;;9.98;100.00;101303.81;5011846;28;20202;-75
2023/01/06 09:39:08;;;;;;;8.17;5.00;;;;;;;9.98;100.00;101306.38;4996980;28;20235;-75
2023/01/06 09:42:18;;;;;;;5.63;4.80;;;;;;;9.96;100.00;101302.03;5011125;28;20807;-75
2023/01/06 09:44:53;;;;;;;6.53;4.77;;;;;;;9.97;100.00;101311.44;4988391;28;20202;-74
2023/01/06 09:47:24;;;;;;;6.67;4.60;;;;;;;9.96;100.00;101305.44;5016894;28;20304;-75
2023/01/06 09:50:22;;;;;;;8.87;5.07;;;;;;;9.98;100.00;101303.81;4986985;28;20203;-75
2023/01/06 09:52:53;;;;;;;7.03;4.80;;;;;;;10.02;100.00;101312.44;4978583;28;20223;-75
2023/01/06 09:55:43;;;;;;;6.00;4.40;;;;;;;10.03;100.00;101298.81;4994382;28;20665;-75
2023/01/06 09:58:24;;;;;;;5.13;4.30;;;;;;;9.99;100.00;101308.09;4983495;28;20220;-75
2023/01/06 10:00:53;;;;;;;6.40;5.07;;;;;;;9.97;100.00;101301.19;4990498;28;20657;-75
2023/01/06 10:03:24;;;;;;;6.23;4.87;;;;;;;9.96;100.00;101305.44;5009088;28;20183;-74
2023/01/06 10:06:06;;;;;;;5.00;4.53;;;;;;;9.93;100.00;101313.03;5003600;28;20555;-75
2023/01/06 10:08:46;;;;;;;7.27;4.37;;;;;;;9.93;100.00;101305.38;4995790;28;20254;-78
2023/01/06 10:11:30;;;;;;;6.27;4.30;;;;;;;9.93;100.00;101297.69;5007364;28;20194;-75
2023/01/06 10:14:14;;;;;;;6.90;5.37;;;;;;;9.92;100.00;101306.19;5010833;28;20218;-75
2023/01/06 10:17:05;;;;;;;6.37;4.67;;;;;;;9.91;100.00;101304.44;4998069;28;20230;-75
2023/01/06 10:19:55;;;;;;;4.93;4.53;;;;;;;9.91;100.00;101306.16;5020305;28;20274;-74
2023/01/06 10:22:41;;;;;;;6.10;4.50;;;;;;;9.93;100.00;101301.94;5022026;28;20194;-74
2023/01/06 10:25:39;;;;;;;5.00;4.60;;;;;;;9.95;100.00;101290.06;4993393;28;20509;-74
2023/01/06 10:28:09;;;;;;;7.47;4.87;;;;;;;9.95;100.00;101295.19;5021152;28;20297;-75
2023/01/06 10:30:46;;;;;;;4.97;4.27;;;;;;;9.96;100.00;101279.84;4990616;28;20221;-75
2023/01/06 10:33:26;;;;;;;4.93;4.53;;;;;;;9.98;100.00;101292.69;4992896;28;20277;-76
2023/01/06 10:35:54;;;;;;;4.53;3.87;;;;;;;10.03;100.00;101292.00;4984049;28;20249;-75
2023/01/06 10:38:34;;;;;;;5.23;4.60;;;;;;;10.08;100.00;101289.59;4998067;28;20561;-75
2023/01/06 10:41:11;;;;;;;7.20;4.30;;;;;;;10.07;100.00;101298.13;5002788;28;20206;-75
2023/01/06 10:43:36;;;;;;;5.27;4.47;;;;;;;10.03;100.00;101297.13;5006041;28;20183;-75
2023/01/06 10:46:02;;;;;;;5.13;4.63;;;;;;;10.06;100.00;101299.81;5010169;28;20807;-75
2023/01/06 10:48:31;;;;;;;4.87;4.10;;;;;;;10.07;100.00;101311.78;4978807;28;20223;-75
2023/01/06 10:50:56;;;;;;;5.67;4.50;;;;;;;10.11;100.00;101303.38;4990438;28;20191;-75
2023/01/06 10:53:22;;;;;;;5.77;4.37;;;;;;;10.07;100.00;101316.03;5013184;28;20611;-76
2023/01/06 10:55:53;;;;;;;5.13;4.23;;;;;;;10.10;100.00;101306.72;4976924;28;20286;-75
2023/01/06 10:58:34;;;;;;;5.47;4.87;;;;;;;10.13;100.00;101295.75;5008551;28;20269;-77
2023/01/06 11:01:10;;;;;;;4.57;4.27;;;;;;;10.20;100.00;101301.06;4992395;28;20217;-75
2023/01/06 11:03:36;;;;;;;4.87;4.37;;;;;;;10.24;100.00;101294.34;5010830;28;20650;-75
2023/01/06 11:06:06;;;;;;;5.23;4.73;;;;;;;10.32;100.00;101298.00;5008476;28;20274;-75
2023/01/06 11:08:33;;;;;;;5.50;4.47;;;;;;;10.36;100.00;101300.66;5015139;28;20217;-75
2023/01/06 11:10:59;;;;;;;6.03;3.73;;;;;;;10.47;100.00;101301.81;5019702;28;20277;-75
2023/01/06 11:13:30;;;;;;;4.93;4.17;;;;;;;10.59;100.00;101302.16;5016474;28;20322;-74
2023/01/06 11:15:58;;;;;;;4.03;3.73;;;;;;;10.78;100.00;101300.94;5006054;28;20205;-74
2023/01/06 11:18:32;;;;;;;3.33;3.13;;;;;;;10.98;100.00;101295.50;4979531;28;20500;-75
2023/01/06 11:21:06;;;;;;;3.27;2.90;;;;;;;10.73;100.00;101307.66;5011030;28;20202;-75
2023/01/06 11:23:32;;;;;;;3.87;3.30;;;;;;;10.76;100.00;101300.91;5007519;28;20201;-77
2023/01/06 11:26:04;;;;;;;4.33;3.40;;;;;;;10.70;100.00;101302.44;4990235;28;20206;-76